createdAt,value
2017-11-15T00:01:18.213Z,85.16
2017-11-15T00:03:45.907Z,85.29
2017-11-15T00:06:13.526Z,85.12
2017-11-15T00:08:41.138Z,85.10
2017-11-15T00:11:08.732Z,84.79
2017-11-15T00:13:36.319Z,84.64
2017-11-15T00:16:03.941Z,84.70
2017-11-15T00:18:31.529Z,84.72
2017-11-15T00:20:59.177Z,85.05
2017-11-15T00:23:26.778Z,84.91
2017-11-15T00:25:54.363Z,84.93
2017-11-15T00:28:21.967Z,85.10
2017-11-15T00:30:49.577Z,85.24
2017-11-15T00:33:17.192Z,85.48
2017-11-15T00:35:44.789Z,85.17
2017-11-15T00:38:12.653Z,84.99
2017-11-15T00:40:40.307Z,84.90
2017-11-15T00:43:07.882Z,85.12
2017-11-15T00:45:35.514Z,85.14
2017-11-15T00:48:03.105Z,85.10
2017-11-15T00:50:30.704Z,85.26
2017-11-15T00:52:58.631Z,85.15
2017-11-15T00:55:26.221Z,85.18
2017-11-15T00:57:53.840Z,85.43
2017-11-15T01:00:21.449Z,85.27
2017-11-15T01:02:49.287Z,85.69
2017-11-15T01:05:16.955Z,85.24
2017-11-15T01:07:44.538Z,85.11
2017-11-15T01:10:12.157Z,85.42
2017-11-15T01:12:39.738Z,85.40
2017-11-15T01:15:07.332Z,85.29
2017-11-15T01:17:34.968Z,85.41
2017-11-15T01:20:02.567Z,85.38
2017-11-15T01:22:30.490Z,85.31
2017-11-15T01:24:58.066Z,85.39
2017-11-15T01:27:25.664Z,85.69
2017-11-15T01:29:53.279Z,85.47
2017-11-15T01:32:20.894Z,85.59
2017-11-15T01:34:48.522Z,85.80
2017-11-15T01:37:16.141Z,85.79
2017-11-15T01:39:43.758Z,85.61
2017-11-15T01:42:11.516Z,85.95
2017-11-15T01:44:39.109Z,86.10
2017-11-15T01:47:07.014Z,86.06
2017-11-15T01:49:34.604Z,86.44
2017-11-15T01:52:02.229Z,86.48
2017-11-15T01:54:29.836Z,86.56
2017-11-15T01:56:57.771Z,86.63
2017-11-15T01:59:25.394Z,86.80
2017-11-15T02:01:52.969Z,86.99
2017-11-15T02:04:20.551Z,87.42
2017-11-15T02:06:49.059Z,87.54
2017-11-15T02:09:16.907Z,87.74
2017-11-15T02:11:44.542Z,87.98
2017-11-15T02:14:12.435Z,88.35
2017-11-15T02:16:40.017Z,88.43
2017-11-15T02:19:07.979Z,88.53
2017-11-15T02:21:35.567Z,88.73
2017-11-15T02:24:03.501Z,89.04
2017-11-15T02:26:31.110Z,89.23
2017-11-15T02:28:58.701Z,89.54
2017-11-15T02:31:26.315Z,89.69
2017-11-15T02:33:53.913Z,90.08
2017-11-15T02:36:21.545Z,90.14
2017-11-15T02:38:49.170Z,90.04
2017-11-15T02:41:16.773Z,90.24
2017-11-15T02:43:44.380Z,90.19
2017-11-15T02:46:11.961Z,90.18
2017-11-15T02:48:39.594Z,90.16
2017-11-15T02:51:07.189Z,89.72
2017-11-15T02:53:35.049Z,89.83
2017-11-15T02:56:02.919Z,89.86
2017-11-15T02:58:30.788Z,89.89
2017-11-15T03:00:58.419Z,89.89
2017-11-15T03:03:26.316Z,89.72
2017-11-15T03:05:53.906Z,89.80
2017-11-15T03:08:21.750Z,89.68
2017-11-15T03:10:49.339Z,89.50
2017-11-15T03:13:17.226Z,89.46
2017-11-15T03:15:44.815Z,89.37
2017-11-15T03:18:12.401Z,89.22
2017-11-15T03:20:40.046Z,89.10
2017-11-15T03:23:07.661Z,89.20
2017-11-15T03:25:35.286Z,89.31
2017-11-15T03:28:02.913Z,89.55
2017-11-15T03:30:30.494Z,89.34
2017-11-15T03:32:58.142Z,89.70
2017-11-15T03:35:25.725Z,89.37
2017-11-15T03:37:53.344Z,89.31
2017-11-15T03:40:20.949Z,89.18
2017-11-15T03:42:48.554Z,89.21
2017-11-15T03:45:16.486Z,89.23
2017-11-15T03:47:44.080Z,89.09
2017-11-15T03:50:11.744Z,89.16
2017-11-15T03:52:39.354Z,89.36
2017-11-15T03:55:06.932Z,89.28
2017-11-15T03:57:35.461Z,89.17
2017-11-15T04:00:03.060Z,89.14
2017-11-15T04:02:30.677Z,89.03
2017-11-15T04:04:58.253Z,88.74
2017-11-15T04:07:25.836Z,88.60
2017-11-15T04:09:54.245Z,88.63
2017-11-15T04:12:21.834Z,88.34
2017-11-15T04:14:49.469Z,88.41
2017-11-15T04:17:17.056Z,88.31
2017-11-15T04:19:44.640Z,88.37
2017-11-15T04:22:12.268Z,88.28
2017-11-15T04:24:40.082Z,88.52
2017-11-15T04:27:07.709Z,88.50
2017-11-15T04:29:35.305Z,88.36
2017-11-15T04:32:02.901Z,88.42
2017-11-15T04:34:30.520Z,88.33
2017-11-15T04:36:58.429Z,88.27
2017-11-15T04:39:26.401Z,88.11
2017-11-15T04:41:54.003Z,88.14
2017-11-15T04:44:21.828Z,88.36
2017-11-15T04:46:49.443Z,88.50
2017-11-15T04:49:17.021Z,88.47
2017-11-15T04:51:44.670Z,88.36
2017-11-15T04:54:12.257Z,88.35
2017-11-15T04:56:39.850Z,88.26
2017-11-15T04:59:07.469Z,88.17
2017-11-15T05:01:35.062Z,88.14
2017-11-15T05:04:02.933Z,87.75
2017-11-15T05:06:30.518Z,87.93
2017-11-15T05:08:58.094Z,87.95
2017-11-15T05:11:25.743Z,87.83
2017-11-15T05:13:53.340Z,87.95
2017-11-15T05:16:20.987Z,87.89
2017-11-15T05:18:48.588Z,87.89
2017-11-15T05:21:16.476Z,87.82
2017-11-15T05:23:44.137Z,87.83
2017-11-15T05:26:11.804Z,87.69
2017-11-15T05:28:39.425Z,87.83
2017-11-15T05:31:07.022Z,87.70
2017-11-15T05:33:34.605Z,87.62
2017-11-15T05:36:02.216Z,87.65
2017-11-15T05:38:29.809Z,87.58
2017-11-15T05:40:57.444Z,87.57
2017-11-15T05:43:25.092Z,87.59
2017-11-15T05:45:52.675Z,87.71
2017-11-15T05:48:20.294Z,87.83
2017-11-15T05:50:47.882Z,87.86
2017-11-15T05:53:15.794Z,87.81
2017-11-15T05:55:43.418Z,87.81
2017-11-15T05:58:11.019Z,87.79
2017-11-15T06:00:38.612Z,87.73
2017-11-15T06:03:06.236Z,87.84
2017-11-15T06:05:33.825Z,88.25
2017-11-15T06:08:01.765Z,88.10
2017-11-15T06:10:29.340Z,88.04
2017-11-15T06:12:57.375Z,88.35
2017-11-15T06:15:24.987Z,88.72
2017-11-15T06:17:52.595Z,89.01
2017-11-15T06:20:20.550Z,89.29
2017-11-15T06:22:48.199Z,89.35
2017-11-15T06:25:15.973Z,89.25
2017-11-15T06:27:43.516Z,89.26
2017-11-15T06:30:11.103Z,89.06
2017-11-15T06:32:38.705Z,89.02
2017-11-15T06:35:06.568Z,89.02
2017-11-15T06:37:34.147Z,89.22
2017-11-15T06:40:01.754Z,89.15
2017-11-15T06:42:29.353Z,89.07
2017-11-15T06:44:56.999Z,89.17
2017-11-15T06:47:24.605Z,89.17
2017-11-15T06:49:52.198Z,89.12
2017-11-15T06:52:20.117Z,89.24
2017-11-15T06:54:47.705Z,89.19
2017-11-15T06:57:15.810Z,89.34
2017-11-15T06:59:43.726Z,89.47
2017-11-15T07:02:11.371Z,89.48
2017-11-15T07:04:38.987Z,89.51
2017-11-15T07:07:06.598Z,89.63
2017-11-15T07:09:34.273Z,89.50
2017-11-15T07:12:01.880Z,89.23
2017-11-15T07:14:29.461Z,89.25
2017-11-15T07:16:57.084Z,89.18
2017-11-15T07:19:24.683Z,89.09
2017-11-15T07:21:52.323Z,89.13
2017-11-15T07:24:19.947Z,89.06
2017-11-15T07:26:47.535Z,88.90
2017-11-15T07:29:15.153Z,88.65
2017-11-15T07:31:42.762Z,88.49
2017-11-15T07:34:10.391Z,88.54
2017-11-15T07:36:37.973Z,88.44
2017-11-15T07:39:05.684Z,88.26
2017-11-15T07:41:33.576Z,88.00
2017-11-15T07:44:01.158Z,88.18
2017-11-15T07:46:28.787Z,88.05
2017-11-15T07:48:56.379Z,87.93
2017-11-15T07:51:23.977Z,87.94
2017-11-15T07:53:51.606Z,87.75
2017-11-15T07:56:19.204Z,87.92
2017-11-15T07:58:46.893Z,87.92
2017-11-15T08:01:14.565Z,87.98
2017-11-15T08:03:42.163Z,88.20
2017-11-15T08:06:09.789Z,88.21
2017-11-15T08:08:37.386Z,87.92
2017-11-15T08:11:05.006Z,87.81
2017-11-15T08:13:32.634Z,87.62
2017-11-15T08:16:00.229Z,87.46
2017-11-15T08:18:28.139Z,87.44
2017-11-15T08:20:55.836Z,87.29
2017-11-15T08:23:23.494Z,87.48
2017-11-15T08:25:51.105Z,87.54
2017-11-15T08:28:18.724Z,87.64
2017-11-15T08:30:46.348Z,87.74
2017-11-15T08:33:13.995Z,87.78
2017-11-15T08:35:41.643Z,87.65
2017-11-15T08:38:09.252Z,87.53
2017-11-15T08:40:37.186Z,87.60
2017-11-15T08:43:04.816Z,87.54
2017-11-15T08:45:32.423Z,87.26
2017-11-15T08:48:00.085Z,87.03
2017-11-15T08:50:27.716Z,86.85
2017-11-15T08:52:55.299Z,86.59
2017-11-15T08:55:22.929Z,86.61
2017-11-15T08:57:50.553Z,86.30
2017-11-15T09:00:18.488Z,86.15
2017-11-15T09:02:46.100Z,85.74
2017-11-15T09:05:13.718Z,85.82
2017-11-15T09:07:41.391Z,85.72
2017-11-15T09:10:09.004Z,85.70
2017-11-15T09:12:36.646Z,85.27
2017-11-15T09:15:04.267Z,84.96
2017-11-15T09:17:31.882Z,84.81
2017-11-15T09:19:59.511Z,84.56
2017-11-15T09:22:27.098Z,84.53
2017-11-15T09:24:54.735Z,84.49
2017-11-15T09:27:22.350Z,85.16
2017-11-15T09:29:49.949Z,85.43
2017-11-15T09:32:17.602Z,85.27
2017-11-15T09:34:45.192Z,85.43
2017-11-15T09:37:12.829Z,85.62
2017-11-15T09:39:40.435Z,85.18
2017-11-15T09:42:08.036Z,85.11
2017-11-15T09:44:35.662Z,84.70
2017-11-15T09:47:03.256Z,84.88
2017-11-15T09:49:30.889Z,84.99
2017-11-15T09:51:58.485Z,84.78
2017-11-15T09:54:26.097Z,84.90
2017-11-15T09:56:53.731Z,85.06
2017-11-15T09:59:21.342Z,85.75
2017-11-15T10:01:48.979Z,86.08
2017-11-15T10:04:16.558Z,85.91
2017-11-15T10:06:44.169Z,86.17
2017-11-15T10:09:11.793Z,86.05
2017-11-15T10:11:39.402Z,85.58
2017-11-15T10:14:07.076Z,85.04
2017-11-15T10:16:34.683Z,85.55
2017-11-15T10:19:02.297Z,85.47
2017-11-15T10:21:29.927Z,85.82
2017-11-15T10:23:57.517Z,86.18
2017-11-15T10:26:25.138Z,85.98
2017-11-15T10:28:52.739Z,86.17
2017-11-15T10:31:20.346Z,85.95
2017-11-15T10:33:47.963Z,85.96
2017-11-15T10:36:15.572Z,85.76
2017-11-15T10:38:43.201Z,85.41
2017-11-15T10:41:10.795Z,85.22
2017-11-15T10:43:38.388Z,85.49
2017-11-15T10:46:06.020Z,85.44
2017-11-15T10:48:33.621Z,85.48
2017-11-15T10:51:01.648Z,85.42
2017-11-15T10:53:29.244Z,85.08
2017-11-15T10:55:56.837Z,84.84
2017-11-15T10:58:24.474Z,85.19
2017-11-15T11:00:52.072Z,85.35
2017-11-15T11:03:19.714Z,85.58
2017-11-15T11:05:47.375Z,85.63
2017-11-15T11:08:15.030Z,85.66
2017-11-15T11:10:42.615Z,84.93
2017-11-15T11:13:10.308Z,85.30
2017-11-15T11:15:38.224Z,84.94
2017-11-15T11:18:05.869Z,84.93
2017-11-15T11:20:33.531Z,84.20
2017-11-15T11:23:01.129Z,83.87
2017-11-15T11:25:28.729Z,84.07
2017-11-15T11:27:56.353Z,83.87
2017-11-15T11:30:23.974Z,83.87
2017-11-15T11:32:51.634Z,83.80
2017-11-15T11:35:19.233Z,83.77
2017-11-15T11:37:46.855Z,83.56
2017-11-15T11:40:14.465Z,83.37
2017-11-15T11:42:42.082Z,83.20
2017-11-15T11:45:09.715Z,83.22
2017-11-15T11:47:37.322Z,83.13
2017-11-15T11:50:04.918Z,83.30
2017-11-15T11:52:32.555Z,83.33
2017-11-15T11:55:00.626Z,83.55
2017-11-15T11:57:28.245Z,83.59
2017-11-15T11:59:55.950Z,83.45
2017-11-15T12:02:23.589Z,83.29
2017-11-15T12:04:51.192Z,83.08
2017-11-15T12:07:18.851Z,82.91
2017-11-15T12:09:46.470Z,82.58
2017-11-15T12:12:14.094Z,82.20
2017-11-15T12:14:41.723Z,82.35
2017-11-15T12:17:09.386Z,82.40
2017-11-15T12:19:37.036Z,82.33
2017-11-15T12:22:04.721Z,81.91
2017-11-15T12:24:32.324Z,82.01
2017-11-15T12:26:59.966Z,82.08
2017-11-15T12:29:27.851Z,81.91
2017-11-15T12:31:55.880Z,81.74
2017-11-15T12:34:23.485Z,81.92
2017-11-15T12:36:51.416Z,81.87
2017-11-15T12:39:19.024Z,81.58
2017-11-15T12:41:46.629Z,81.82
2017-11-15T12:44:14.270Z,82.00
2017-11-15T12:46:41.889Z,81.82
2017-11-15T12:49:09.845Z,81.82
2017-11-15T12:51:37.521Z,81.81
2017-11-15T12:54:05.150Z,82.03
2017-11-15T12:56:32.800Z,82.46
2017-11-15T12:59:00.420Z,82.38
2017-11-15T13:01:28.044Z,82.47
2017-11-15T13:03:55.683Z,82.53
2017-11-15T13:06:23.293Z,82.36
2017-11-15T13:08:50.950Z,82.27
2017-11-15T13:11:18.553Z,82.65
2017-11-15T13:13:46.151Z,82.80
2017-11-15T13:16:13.812Z,82.58
2017-11-15T13:18:41.689Z,82.76
2017-11-15T13:21:09.357Z,83.21
2017-11-15T13:23:36.964Z,83.14
2017-11-15T13:26:04.571Z,83.10
2017-11-15T13:28:32.239Z,83.22
2017-11-15T13:30:59.830Z,83.67
2017-11-15T13:33:27.471Z,84.15
2017-11-15T13:35:55.432Z,83.99
2017-11-15T13:38:23.027Z,84.41
2017-11-15T13:40:50.657Z,84.53
2017-11-15T13:43:18.272Z,84.62
2017-11-15T13:45:45.940Z,84.34
2017-11-15T13:48:13.531Z,84.33
2017-11-15T13:50:41.413Z,84.54
2017-11-15T13:53:09.483Z,84.82
2017-11-15T13:55:37.092Z,84.93
2017-11-15T13:58:04.712Z,85.05
2017-11-15T14:00:32.297Z,84.89
2017-11-15T14:02:59.973Z,85.20
2017-11-15T14:05:27.577Z,85.46
2017-11-15T14:07:55.159Z,85.55
2017-11-15T14:10:22.782Z,85.66
2017-11-15T14:12:50.386Z,85.81
2017-11-15T14:15:18.031Z,85.91
2017-11-15T14:17:45.755Z,86.04
2017-11-15T14:20:13.391Z,86.25
2017-11-15T14:22:41.039Z,86.33
2017-11-15T14:25:08.652Z,85.93
2017-11-15T14:27:36.558Z,86.12
2017-11-15T14:30:04.205Z,86.68
2017-11-15T14:32:31.796Z,86.76
2017-11-15T14:34:59.442Z,86.92
2017-11-15T14:37:27.309Z,87.31
2017-11-15T14:39:54.946Z,87.37
2017-11-15T14:42:22.556Z,87.37
2017-11-15T14:44:50.149Z,87.37
2017-11-15T14:47:18.066Z,87.31
2017-11-15T14:49:45.898Z,87.59
2017-11-15T14:52:13.541Z,87.59
2017-11-15T14:54:41.184Z,87.34
2017-11-15T14:57:08.779Z,87.42
2017-11-15T14:59:36.438Z,87.45
2017-11-15T15:02:04.047Z,87.28
2017-11-15T15:04:31.740Z,87.38
2017-11-15T15:06:59.371Z,87.54
2017-11-15T15:09:26.970Z,87.59
2017-11-15T15:11:54.572Z,87.59
2017-11-15T15:14:22.174Z,87.64
2017-11-15T15:16:49.825Z,87.98
2017-11-15T15:19:17.414Z,88.08
2017-11-15T15:21:45.003Z,88.02
2017-11-15T15:24:12.915Z,88.19
2017-11-15T15:26:40.513Z,88.17
2017-11-15T15:29:08.166Z,88.28
2017-11-15T15:31:35.752Z,88.41
2017-11-15T15:34:03.350Z,88.33
2017-11-15T15:36:30.971Z,88.53
2017-11-15T15:38:58.596Z,88.76
2017-11-15T15:41:26.217Z,88.81
2017-11-15T15:43:54.125Z,88.92
2017-11-15T15:46:21.737Z,89.00
2017-11-15T15:48:49.356Z,88.95
2017-11-15T15:51:16.985Z,89.24
2017-11-15T15:53:44.605Z,89.15
2017-11-15T15:56:12.184Z,89.36
2017-11-15T15:58:39.773Z,89.40
2017-11-15T16:01:07.409Z,89.55
2017-11-15T16:03:34.989Z,89.53
2017-11-15T16:06:02.983Z,89.85
2017-11-15T16:08:30.572Z,90.20
2017-11-15T16:10:58.967Z,90.24
2017-11-15T16:13:26.599Z,90.47
2017-11-15T16:15:54.181Z,90.75
2017-11-15T16:18:22.122Z,90.82
2017-11-15T16:20:49.982Z,90.94
2017-11-15T16:23:17.574Z,91.04
2017-11-15T16:25:45.511Z,91.04
2017-11-15T16:28:13.104Z,90.94
2017-11-15T16:30:40.742Z,90.92
2017-11-15T16:33:08.334Z,91.01
2017-11-15T16:35:36.166Z,90.92
2017-11-15T16:38:03.790Z,90.86
2017-11-15T16:40:31.386Z,90.75
2017-11-15T16:42:59.027Z,90.71
2017-11-15T16:45:26.720Z,90.78
2017-11-15T16:47:54.386Z,91.20
2017-11-15T16:50:22.018Z,91.27
2017-11-15T16:52:49.632Z,91.16
2017-11-15T16:55:17.282Z,91.07
2017-11-15T16:57:44.897Z,91.31
2017-11-15T17:00:12.537Z,91.50
2017-11-15T17:02:40.234Z,91.70
2017-11-15T17:05:07.859Z,91.71
2017-11-15T17:07:35.479Z,91.94
2017-11-15T17:10:03.071Z,92.03
2017-11-15T17:12:30.772Z,91.99
2017-11-15T17:14:58.674Z,91.90
2017-11-15T17:17:26.311Z,91.78
2017-11-15T17:19:53.925Z,91.84
2017-11-15T17:22:21.537Z,91.85
2017-11-15T17:24:49.167Z,91.98
2017-11-15T17:27:16.798Z,92.13
2017-11-15T17:29:44.383Z,92.29
2017-11-15T17:32:11.978Z,92.32
2017-11-15T17:34:39.644Z,92.38
2017-11-15T17:37:07.244Z,92.43
2017-11-15T17:39:34.852Z,92.37
2017-11-15T17:42:02.433Z,92.57
2017-11-15T17:44:30.098Z,92.83
2017-11-15T17:46:57.731Z,92.79
2017-11-15T17:49:25.385Z,92.87
2017-11-15T17:51:53.075Z,92.90
2017-11-15T17:54:20.705Z,92.90
2017-11-15T17:56:48.335Z,92.79
2017-11-15T17:59:16.205Z,92.92
2017-11-15T18:01:43.866Z,92.80
2017-11-15T18:04:11.493Z,92.80
2017-11-15T18:06:39.144Z,92.82
2017-11-15T18:09:06.800Z,92.82
2017-11-15T18:11:34.393Z,92.77
2017-11-15T18:14:02.028Z,92.81
2017-11-15T18:16:29.624Z,92.81
2017-11-15T18:18:57.292Z,93.10
2017-11-15T18:21:24.894Z,93.06
2017-11-15T18:23:52.523Z,92.95
2017-11-15T18:26:20.207Z,93.03
2017-11-15T18:28:47.970Z,92.95
2017-11-15T18:31:15.597Z,92.76
2017-11-15T18:33:43.230Z,92.82
2017-11-15T18:36:10.957Z,92.93
2017-11-15T18:38:38.570Z,93.04
2017-11-15T18:41:06.226Z,93.09
2017-11-15T18:43:33.878Z,93.12
2017-11-15T18:46:01.600Z,93.17
2017-11-15T18:48:29.240Z,93.27
2017-11-15T18:50:56.848Z,93.29
2017-11-15T18:53:25.093Z,93.13
2017-11-15T18:55:52.756Z,93.15
2017-11-15T18:58:20.364Z,93.17
2017-11-15T19:00:48.098Z,93.11
2017-11-15T19:03:15.751Z,93.18
2017-11-15T19:05:43.366Z,93.13
2017-11-15T19:08:10.996Z,93.21
2017-11-15T19:10:38.618Z,93.13
2017-11-15T19:13:06.338Z,92.98
2017-11-15T19:15:33.982Z,93.01
2017-11-15T19:18:01.602Z,93.07
2017-11-15T19:20:29.221Z,93.17
2017-11-15T19:22:56.979Z,93.23
2017-11-15T19:25:24.760Z,93.25
2017-11-15T19:27:52.448Z,93.26
2017-11-15T19:30:20.069Z,93.29
2017-11-15T19:32:47.701Z,93.20
2017-11-15T19:35:15.347Z,93.26
2017-11-15T19:37:43.362Z,93.41
2017-11-15T19:40:10.970Z,93.37
2017-11-15T19:42:38.777Z,93.34
2017-11-15T19:45:06.495Z,93.29
2017-11-15T19:47:34.088Z,93.22
2017-11-15T19:50:01.967Z,93.22
2017-11-15T19:52:29.582Z,93.26
2017-11-15T19:54:57.266Z,93.23
2017-11-15T19:57:25.008Z,93.13
2017-11-15T19:59:52.682Z,93.16
2017-11-15T20:02:20.395Z,93.16
2017-11-15T20:04:48.095Z,92.74
2017-11-15T20:07:15.775Z,92.73
2017-11-15T20:09:43.432Z,92.72
2017-11-15T20:12:11.069Z,92.83
2017-11-15T20:14:39.015Z,92.95
2017-11-15T20:17:06.624Z,92.95
2017-11-15T20:19:34.229Z,93.03
2017-11-15T20:22:01.850Z,93.06
2017-11-15T20:24:29.476Z,93.07
2017-11-15T20:26:57.133Z,92.84
2017-11-15T20:29:24.875Z,92.72
2017-11-15T20:31:52.519Z,92.88
2017-11-15T20:34:21.643Z,92.89
2017-11-15T20:36:50.093Z,92.88
2017-11-15T20:39:17.796Z,93.02
2017-11-15T20:41:45.412Z,93.10
2017-11-15T20:44:13.023Z,93.21
2017-11-15T20:46:40.658Z,93.13
2017-11-15T20:49:08.710Z,93.23
2017-11-15T20:51:36.657Z,93.31
2017-11-15T20:54:04.313Z,93.37
2017-11-15T20:56:32.293Z,93.37
2017-11-15T20:59:00.043Z,93.35
2017-11-15T21:01:27.693Z,93.23
2017-11-15T21:03:55.364Z,93.19
2017-11-15T21:06:23.310Z,93.16
2017-11-15T21:08:50.972Z,93.15
2017-11-15T21:11:18.597Z,93.07
2017-11-15T21:13:46.275Z,92.98
2017-11-15T21:16:14.214Z,92.96
2017-11-15T21:18:42.087Z,92.81
2017-11-15T21:21:09.741Z,92.76
2017-11-15T21:23:37.380Z,92.76
2017-11-15T21:26:05.062Z,92.86
2017-11-15T21:28:32.661Z,93.09
2017-11-15T21:31:04.785Z,93.17
2017-11-15T21:33:32.401Z,93.17
2017-11-15T21:35:59.993Z,93.15
2017-11-15T21:38:27.951Z,93.07
2017-11-15T21:40:55.811Z,93.17
2017-11-15T21:43:24.409Z,93.12
2017-11-15T21:45:52.013Z,93.13
2017-11-15T21:48:19.630Z,93.17
2017-11-15T21:50:47.265Z,93.31
2017-11-15T21:53:14.873Z,93.33
2017-11-15T21:55:42.513Z,93.41
2017-11-15T21:58:10.098Z,93.53
2017-11-15T22:00:37.741Z,93.63
2017-11-15T22:03:05.406Z,93.68
2017-11-15T22:05:33.013Z,93.67
2017-11-15T22:08:00.675Z,93.62
2017-11-15T22:10:28.306Z,93.58
2017-11-15T22:12:55.903Z,93.46
2017-11-15T22:15:23.528Z,93.50
2017-11-15T22:17:53.970Z,93.48
2017-11-15T22:20:21.619Z,93.39
2017-11-15T22:22:49.257Z,93.37
2017-11-15T22:25:16.850Z,93.29
2017-11-15T22:27:45.452Z,93.28
2017-11-15T22:30:13.190Z,93.33
2017-11-15T22:32:40.848Z,93.30
2017-11-15T22:35:08.455Z,93.30
2017-11-15T22:37:36.063Z,93.31
2017-11-15T22:40:03.707Z,93.22
2017-11-15T22:42:31.307Z,93.20
2017-11-15T22:44:58.952Z,93.17
2017-11-15T22:47:26.614Z,93.04
2017-11-15T22:49:54.211Z,93.01
2017-11-15T22:52:21.853Z,92.91
2017-11-15T22:54:49.461Z,92.95
2017-11-15T22:57:17.090Z,92.92
2017-11-15T22:59:44.704Z,92.93
2017-11-15T23:02:12.313Z,92.94
2017-11-15T23:04:39.941Z,92.86
2017-11-15T23:07:07.808Z,93.03
2017-11-15T23:09:35.471Z,93.15
2017-11-15T23:12:03.074Z,93.13
2017-11-15T23:14:30.699Z,93.03
2017-11-15T23:16:58.376Z,93.02
2017-11-15T23:19:26.334Z,93.15
2017-11-15T23:21:53.970Z,93.22
2017-11-15T23:24:21.575Z,93.27
2017-11-15T23:26:49.175Z,93.33
2017-11-15T23:29:16.794Z,93.44
2017-11-15T23:31:44.382Z,93.41
2017-11-15T23:34:12.015Z,93.43
2017-11-15T23:36:39.629Z,93.43
2017-11-15T23:39:07.233Z,93.43
2017-11-15T23:41:34.858Z,93.40
2017-11-15T23:44:02.482Z,93.51
2017-11-15T23:46:30.421Z,93.49
2017-11-15T23:48:58.007Z,93.47
2017-11-15T23:51:25.862Z,93.48
2017-11-15T23:53:53.489Z,93.51
2017-11-15T23:56:21.079Z,93.46
2017-11-15T23:58:48.710Z,93.42
